createdAt,value
2022-10-17T00:00:54.388Z,18.27
2022-10-17T00:03:24.206Z,18.16
2022-10-17T00:05:54.246Z,18.00
2022-10-17T00:08:23.924Z,17.85
2022-10-17T00:11:05.612Z,17.75
2022-10-17T00:13:36.521Z,17.66
2022-10-17T00:16:07.084Z,17.51
2022-10-17T00:18:37.096Z,17.41
2022-10-17T00:21:07.114Z,17.34
2022-10-17T00:23:36.816Z,17.34
2022-10-17T00:26:07.678Z,17.25
2022-10-17T00:28:37.445Z,17.27
2022-10-17T00:31:08.897Z,17.28
2022-10-17T00:33:40.348Z,17.32
2022-10-17T00:36:15.443Z,17.36
2022-10-17T00:38:48.496Z,17.38
2022-10-17T00:41:20.547Z,17.38
2022-10-17T00:44:29.217Z,17.48
2022-10-17T00:47:07.517Z,17.52
2022-10-17T00:49:40.415Z,17.53
2022-10-17T00:52:21.313Z,17.62
2022-10-17T00:54:57.251Z,17.68
2022-10-17T00:57:29.472Z,17.73
2022-10-17T01:00:01.815Z,17.79
2022-10-17T01:02:31.859Z,17.85
2022-10-17T01:05:01.995Z,17.87
2022-10-17T01:07:34.916Z,17.86
2022-10-17T01:10:07.722Z,17.89
2022-10-17T01:13:12.989Z,17.89
2022-10-17T01:16:21.779Z,17.87
2022-10-17T01:19:02.303Z,17.82
2022-10-17T01:21:47.897Z,17.79
2022-10-17T01:24:36.429Z,17.76
2022-10-17T01:27:28.505Z,17.72
2022-10-17T01:30:26.202Z,17.71
2022-10-17T01:33:04.109Z,17.69
2022-10-17T01:35:46.349Z,17.63
2022-10-17T01:38:20.239Z,17.65
2022-10-17T01:41:02.060Z,17.62
2022-10-17T01:44:05.639Z,17.61
2022-10-17T01:46:46.537Z,17.55
2022-10-17T01:49:22.343Z,17.55
2022-10-17T01:52:02.166Z,17.55
2022-10-17T01:54:44.738Z,17.58
2022-10-17T01:57:38.953Z,17.61
2022-10-17T02:00:16.320Z,17.62
2022-10-17T02:02:47.987Z,17.59
2022-10-17T02:05:23.577Z,17.51
2022-10-17T02:07:53.521Z,17.48
2022-10-17T02:10:51.172Z,17.44
2022-10-17T02:13:47.550Z,17.41
2022-10-17T02:16:37.659Z,17.28
2022-10-17T02:19:13.347Z,17.21
2022-10-17T02:22:15.398Z,17.20
2022-10-17T02:25:02.507Z,17.20
2022-10-17T02:27:55.600Z,17.18
2022-10-17T02:30:35.704Z,17.14
2022-10-17T02:33:15.379Z,17.04
2022-10-17T02:35:51.189Z,16.93
2022-10-17T02:38:23.240Z,16.87
2022-10-17T02:40:55.517Z,16.86
2022-10-17T02:43:25.957Z,16.83
2022-10-17T02:45:56.200Z,16.83
2022-10-17T02:49:09.533Z,16.87
2022-10-17T02:52:05.929Z,16.87
2022-10-17T02:54:43.482Z,16.90
2022-10-17T02:57:24.244Z,16.87
2022-10-17T02:59:54.975Z,16.88
2022-10-17T03:02:26.908Z,16.90
2022-10-17T03:04:57.914Z,16.91
2022-10-17T03:07:27.850Z,16.88
2022-10-17T03:09:58.654Z,16.93
2022-10-17T03:12:28.568Z,16.93
2022-10-17T03:14:58.821Z,16.97
2022-10-17T03:17:28.517Z,16.95
2022-10-17T03:19:59.154Z,17.00
2022-10-17T03:22:29.093Z,17.03
2022-10-17T03:25:00.667Z,17.03
2022-10-17T03:27:31.335Z,17.04
2022-10-17T03:30:01.817Z,17.13
2022-10-17T03:32:35.459Z,17.25
2022-10-17T03:35:06.061Z,17.31
2022-10-17T03:37:36.023Z,17.41
2022-10-17T03:40:06.340Z,17.39
2022-10-17T03:42:36.292Z,17.38
2022-10-17T03:45:06.707Z,17.32
2022-10-17T03:47:36.418Z,17.30
2022-10-17T03:50:06.813Z,17.25
2022-10-17T03:52:39.134Z,17.27
2022-10-17T03:55:10.426Z,17.21
2022-10-17T03:57:43.409Z,17.13
2022-10-17T04:00:17.541Z,17.06
2022-10-17T04:02:56.196Z,16.95
2022-10-17T04:05:26.910Z,16.83
2022-10-17T04:07:58.721Z,16.72
2022-10-17T04:10:50.896Z,16.62
2022-10-17T04:13:21.047Z,16.52
2022-10-17T04:16:08.380Z,16.46
2022-10-17T04:18:44.297Z,16.36
2022-10-17T04:21:15.503Z,16.26
2022-10-17T04:23:45.791Z,16.19
2022-10-17T04:26:29.279Z,16.12
2022-10-17T04:28:59.546Z,16.09
2022-10-17T04:31:29.463Z,16.02
2022-10-17T04:34:17.090Z,15.98
2022-10-17T04:36:48.255Z,15.90
2022-10-17T04:39:18.247Z,15.90
2022-10-17T04:41:49.281Z,15.84
2022-10-17T04:44:19.563Z,15.81
2022-10-17T04:46:53.865Z,15.76
2022-10-17T04:49:25.371Z,15.71
2022-10-17T04:51:59.511Z,15.66
2022-10-17T04:54:55.668Z,15.57
2022-10-17T04:57:26.990Z,15.51
2022-10-17T05:00:04.446Z,15.47
2022-10-17T05:02:50.058Z,15.44
2022-10-17T05:05:20.307Z,15.66
2022-10-17T05:07:53.017Z,15.80
2022-10-17T05:10:26.843Z,15.97
2022-10-17T05:12:57.184Z,16.09
2022-10-17T05:15:31.887Z,16.12
2022-10-17T05:18:02.057Z,16.11
2022-10-17T05:20:32.699Z,16.09
2022-10-17T05:23:03.844Z,16.06
2022-10-17T05:25:38.291Z,15.94
2022-10-17T05:28:09.232Z,15.88
2022-10-17T05:30:41.051Z,15.84
2022-10-17T05:33:12.324Z,15.80
2022-10-17T05:35:43.126Z,15.80
2022-10-17T05:38:13.122Z,15.85
2022-10-17T05:40:44.791Z,15.81
2022-10-17T05:43:15.900Z,15.76
2022-10-17T05:45:47.486Z,15.67
2022-10-17T05:48:22.322Z,15.60
2022-10-17T05:51:01.866Z,15.56
2022-10-17T05:53:33.894Z,15.51
2022-10-17T05:56:09.747Z,15.50
2022-10-17T05:58:54.103Z,15.56
2022-10-17T06:01:45.428Z,15.58
2022-10-17T06:04:15.582Z,15.74
2022-10-17T06:06:45.893Z,15.87
2022-10-17T06:09:16.227Z,15.98
2022-10-17T06:11:49.670Z,16.05
2022-10-17T06:14:20.028Z,16.12
2022-10-17T06:16:52.953Z,16.14
2022-10-17T06:19:22.955Z,16.22
2022-10-17T06:21:53.556Z,16.25
2022-10-17T06:24:25.716Z,16.30
2022-10-17T06:26:56.431Z,16.33
2022-10-17T06:29:26.209Z,16.35
2022-10-17T06:31:56.251Z,16.39
2022-10-17T06:34:27.229Z,16.28
2022-10-17T06:39:35.058Z,16.04
2022-10-17T06:42:08.905Z,16.00
2022-10-17T06:45:03.180Z,15.97
2022-10-17T06:47:44.356Z,16.04
2022-10-17T06:50:29.939Z,16.06
2022-10-17T06:53:14.947Z,16.12
2022-10-17T06:55:52.484Z,16.18
2022-10-17T06:58:42.407Z,16.22
2022-10-17T07:01:34.501Z,16.25
2022-10-17T07:04:06.303Z,16.25
2022-10-17T07:06:36.916Z,16.28
2022-10-17T07:09:12.452Z,16.29
2022-10-17T07:11:42.633Z,16.25
2022-10-17T07:14:12.376Z,16.19
2022-10-17T07:16:42.460Z,16.25
2022-10-17T07:19:24.629Z,16.26
2022-10-17T07:21:55.159Z,16.25
2022-10-17T07:24:26.217Z,16.25
2022-10-17T07:27:01.745Z,16.18
2022-10-17T07:29:31.939Z,16.18
2022-10-17T07:32:09.758Z,16.18
2022-10-17T07:34:40.598Z,16.14
2022-10-17T07:37:11.920Z,16.18
2022-10-17T07:39:46.699Z,16.21
2022-10-17T07:42:16.668Z,16.25
2022-10-17T07:44:48.596Z,16.29
2022-10-17T07:47:19.034Z,16.26
2022-10-17T07:49:49.964Z,16.30
2022-10-17T07:52:20.307Z,16.24
2022-10-17T07:54:49.980Z,16.19
2022-10-17T07:57:19.656Z,16.19
2022-10-17T07:59:49.431Z,16.18
2022-10-17T08:02:29.576Z,16.16
2022-10-17T08:04:59.967Z,16.18
2022-10-17T08:07:29.650Z,16.22
2022-10-17T08:09:59.421Z,16.26
2022-10-17T08:12:33.522Z,16.26
2022-10-17T08:15:03.725Z,16.30
2022-10-17T08:17:34.354Z,16.30
2022-10-17T08:20:05.200Z,16.29
2022-10-17T08:22:35.443Z,16.25
2022-10-17T08:25:05.790Z,16.24
2022-10-17T08:27:37.389Z,16.25
2022-10-17T08:30:08.229Z,16.22
2022-10-17T08:32:37.927Z,16.21
2022-10-17T08:35:08.073Z,16.21
2022-10-17T08:37:38.060Z,16.21
2022-10-17T08:40:08.321Z,16.25
2022-10-17T08:43:01.946Z,16.28
2022-10-17T08:45:53.364Z,16.35
2022-10-17T08:48:27.354Z,16.35
2022-10-17T08:51:00.593Z,16.42
2022-10-17T08:53:48.451Z,16.46
2022-10-17T08:56:19.866Z,16.45
2022-10-17T08:58:55.016Z,16.46
2022-10-17T09:02:00.776Z,16.49
2022-10-17T09:04:43.170Z,16.52
2022-10-17T09:07:24.101Z,16.56
2022-10-17T09:10:12.694Z,16.60
2022-10-17T09:13:08.939Z,16.67
2022-10-17T09:15:50.624Z,16.70
2022-10-17T09:18:41.013Z,16.76
2022-10-17T09:21:26.920Z,16.84
2022-10-17T09:24:09.570Z,16.81
2022-10-17T09:26:41.823Z,16.86
2022-10-17T09:29:24.657Z,16.91
2022-10-17T09:32:07.063Z,16.93
2022-10-17T09:34:36.933Z,16.93
2022-10-17T09:37:15.543Z,16.97
2022-10-17T09:39:47.108Z,16.97
2022-10-17T09:42:23.022Z,17.03
2022-10-17T09:44:56.013Z,17.04
2022-10-17T09:47:42.359Z,17.06
2022-10-17T09:50:38.737Z,17.15
2022-10-17T09:53:16.983Z,17.31
2022-10-17T09:55:50.746Z,17.38
2022-10-17T09:58:23.283Z,17.49
2022-10-17T10:00:53.368Z,17.55
2022-10-17T10:03:28.372Z,17.62
2022-10-17T10:06:06.952Z,17.62
2022-10-17T10:08:56.988Z,17.69
2022-10-17T10:11:49.814Z,17.92
2022-10-17T10:14:40.962Z,18.03
2022-10-17T10:17:44.822Z,18.33
2022-10-17T10:20:35.473Z,18.40
2022-10-17T10:23:13.963Z,18.09
2022-10-17T10:25:59.446Z,17.90
2022-10-17T10:28:35.698Z,17.89
2022-10-17T10:31:10.421Z,18.03
2022-10-17T10:33:49.495Z,18.09
2022-10-17T10:36:24.021Z,18.10
2022-10-17T10:39:02.406Z,18.27
2022-10-17T10:41:48.955Z,18.17
2022-10-17T10:44:28.039Z,18.13
2022-10-17T10:47:15.783Z,18.18
2022-10-17T10:49:46.641Z,18.21
2022-10-17T10:52:36.265Z,18.40
2022-10-17T10:55:17.964Z,18.64
2022-10-17T10:57:51.654Z,18.88
2022-10-17T11:00:27.635Z,19.03
2022-10-17T11:03:17.293Z,19.20
2022-10-17T11:05:57.948Z,19.24
2022-10-17T11:08:42.771Z,19.29
2022-10-17T11:11:29.667Z,18.99
2022-10-17T11:14:13.854Z,19.43
2022-10-17T11:16:59.368Z,19.84
2022-10-17T11:19:32.146Z,20.63
2022-10-17T11:22:18.457Z,21.04
2022-10-17T11:24:59.144Z,21.20
2022-10-17T11:27:34.263Z,21.25
2022-10-17T11:30:05.240Z,21.25
2022-10-17T11:33:12.759Z,20.76
2022-10-17T11:35:47.334Z,20.60
2022-10-17T11:38:17.272Z,20.35
2022-10-17T11:40:55.050Z,20.19
2022-10-17T11:43:37.643Z,20.19
2022-10-17T11:46:34.134Z,21.44
2022-10-17T11:49:19.821Z,22.94
2022-10-17T11:52:00.858Z,22.44
2022-10-17T11:54:51.472Z,22.07
2022-10-17T11:57:40.567Z,21.15
2022-10-17T12:00:42.178Z,21.03
2022-10-17T12:03:31.279Z,21.05
2022-10-17T12:06:01.196Z,20.88
2022-10-17T12:08:54.289Z,20.80
2022-10-17T12:11:43.433Z,20.29
2022-10-17T12:14:50.271Z,20.12
2022-10-17T12:17:33.637Z,20.08
2022-10-17T12:20:36.386Z,20.02
2022-10-17T12:23:15.404Z,20.18
2022-10-17T12:25:57.105Z,20.88
2022-10-17T12:28:41.829Z,20.91
2022-10-17T12:31:14.207Z,21.18
2022-10-17T12:33:59.209Z,21.21
2022-10-17T12:36:32.030Z,21.03
2022-10-17T12:39:04.833Z,20.87
2022-10-17T12:41:41.036Z,20.97
2022-10-17T12:44:17.147Z,20.97
2022-10-17T12:46:56.622Z,21.28
2022-10-17T12:49:49.142Z,21.75
2022-10-17T12:52:36.304Z,21.45
2022-10-17T12:55:12.111Z,21.81
2022-10-17T12:57:43.309Z,22.24
2022-10-17T13:00:34.546Z,22.94
2022-10-17T13:03:18.582Z,23.46
2022-10-17T13:06:08.977Z,23.71
2022-10-17T13:08:45.805Z,23.66
2022-10-17T13:11:16.517Z,23.51
2022-10-17T13:13:51.315Z,23.67
2022-10-17T13:16:30.094Z,23.42
2022-10-17T13:19:01.481Z,23.77
2022-10-17T13:21:32.074Z,23.42
2022-10-17T13:24:02.278Z,22.78
2022-10-17T13:26:31.973Z,22.87
2022-10-17T13:29:13.917Z,23.57
2022-10-17T13:31:46.985Z,23.31
2022-10-17T13:34:24.268Z,22.84
2022-10-17T13:37:16.658Z,23.22
2022-10-17T13:39:55.726Z,24.57
2022-10-17T13:42:38.787Z,24.56
2022-10-17T13:45:20.611Z,24.93
2022-10-17T13:47:51.249Z,24.73
2022-10-17T13:50:45.790Z,26.13
2022-10-17T13:53:20.869Z,26.41
2022-10-17T13:56:34.711Z,26.14
2022-10-17T13:59:21.413Z,26.24
2022-10-17T14:01:53.239Z,26.61
2022-10-17T14:04:23.300Z,27.39
2022-10-17T14:06:53.996Z,26.13
2022-10-17T14:09:30.500Z,26.55
2022-10-17T14:12:00.341Z,26.37
2022-10-17T14:14:46.176Z,25.11
2022-10-17T14:17:28.012Z,24.93
2022-10-17T14:20:40.457Z,26.50
2022-10-17T14:23:21.059Z,26.13
2022-10-17T14:25:45.694Z,27.30
2022-10-17T14:28:17.926Z,27.84
2022-10-17T14:30:56.659Z,27.51
2022-10-17T14:33:31.423Z,25.89
2022-10-17T14:36:04.222Z,24.76
2022-10-17T14:38:34.243Z,24.26
2022-10-17T14:41:42.294Z,24.53
2022-10-17T14:44:07.639Z,23.56
2022-10-17T14:46:38.948Z,23.56
2022-10-17T14:49:23.243Z,23.31
2022-10-17T14:52:19.128Z,23.01
2022-10-17T14:54:51.867Z,22.99
2022-10-17T14:57:28.461Z,25.34
2022-10-17T14:59:58.856Z,26.10
2022-10-17T15:02:31.287Z,26.29
2022-10-17T15:05:01.656Z,26.51
2022-10-17T15:07:31.554Z,26.72
2022-10-17T15:10:01.956Z,27.66
2022-10-17T15:12:32.673Z,27.73
2022-10-17T15:15:02.709Z,27.39
2022-10-17T15:17:35.642Z,27.28
2022-10-17T15:20:14.078Z,26.81
2022-10-17T15:22:44.134Z,27.35
2022-10-17T15:25:14.147Z,27.57
2022-10-17T15:27:44.196Z,28.32
2022-10-17T15:30:30.454Z,28.35
2022-10-17T15:33:01.698Z,28.59
2022-10-17T15:35:31.716Z,28.67
2022-10-17T15:38:01.381Z,28.15
2022-10-17T15:40:32.424Z,25.88
2022-10-17T15:43:02.278Z,25.24
2022-10-17T15:45:33.735Z,26.74
2022-10-17T15:48:08.136Z,26.87
2022-10-17T15:50:38.951Z,27.12
2022-10-17T15:53:14.070Z,26.72
2022-10-17T15:55:43.793Z,26.91
2022-10-17T15:58:17.708Z,27.32
2022-10-17T16:00:48.259Z,26.58
2022-10-17T16:03:18.090Z,27.35
2022-10-17T16:05:47.837Z,28.34
2022-10-17T16:08:18.634Z,28.69
2022-10-17T16:10:48.641Z,28.72
2022-10-17T16:13:25.041Z,29.33
2022-10-17T16:15:56.904Z,29.21
2022-10-17T16:18:26.913Z,29.20
2022-10-17T16:20:56.752Z,27.38
2022-10-17T16:23:27.220Z,26.44
2022-10-17T16:25:56.863Z,27.12
2022-10-17T16:28:26.543Z,27.96
2022-10-17T16:30:57.175Z,29.18
2022-10-17T16:33:27.121Z,28.08
2022-10-17T16:35:56.941Z,26.62
2022-10-17T16:38:26.668Z,25.86
2022-10-17T16:40:56.336Z,26.41
2022-10-17T16:43:26.018Z,27.23
2022-10-17T16:45:55.676Z,28.04
2022-10-17T16:48:29.586Z,27.63
2022-10-17T16:51:00.140Z,27.50
2022-10-17T16:53:30.632Z,28.59
2022-10-17T16:56:05.042Z,29.25
2022-10-17T16:58:35.193Z,29.21
2022-10-17T17:01:07.348Z,29.10
2022-10-17T17:03:41.884Z,27.96
2022-10-17T17:06:34.250Z,28.51
2022-10-17T17:09:04.406Z,28.89
2022-10-17T17:11:34.178Z,29.14
2022-10-17T17:14:03.991Z,29.20
2022-10-17T17:16:35.656Z,29.17
2022-10-17T17:19:11.758Z,27.96
2022-10-17T17:21:48.659Z,27.50
2022-10-17T17:24:22.685Z,28.59
2022-10-17T17:26:55.909Z,27.93
2022-10-17T17:29:26.704Z,26.55
2022-10-17T17:31:56.491Z,26.70
2022-10-17T17:34:26.599Z,27.77
2022-10-17T17:36:56.654Z,28.73
2022-10-17T17:39:26.346Z,29.14
2022-10-17T17:41:56.770Z,29.24
2022-10-17T17:44:26.941Z,29.75
2022-10-17T17:46:56.663Z,29.76
2022-10-17T17:49:26.416Z,29.73
2022-10-17T17:51:56.130Z,30.29
2022-10-17T17:54:25.833Z,30.12
2022-10-17T17:56:55.710Z,29.65
2022-10-17T17:59:25.455Z,28.97
2022-10-17T18:01:55.425Z,27.46
2022-10-17T18:04:25.209Z,26.72
2022-10-17T18:06:54.870Z,26.03
2022-10-17T18:09:25.059Z,25.55
2022-10-17T18:11:55.085Z,25.04
2022-10-17T18:14:27.679Z,24.73
2022-10-17T18:16:57.760Z,24.55
2022-10-17T18:19:29.313Z,24.67
2022-10-17T18:21:59.328Z,25.76
2022-10-17T18:24:29.902Z,27.15
2022-10-17T18:27:01.063Z,28.00
2022-10-17T18:29:30.984Z,28.87
2022-10-17T18:32:01.730Z,28.90
2022-10-17T18:34:31.459Z,29.00
2022-10-17T18:37:01.232Z,28.53
2022-10-17T18:39:30.925Z,28.49
2022-10-17T18:42:00.629Z,28.48
2022-10-17T18:44:30.337Z,28.34
2022-10-17T18:47:03.893Z,28.25
2022-10-17T18:49:34.493Z,28.07
2022-10-17T18:52:04.360Z,28.22
2022-10-17T18:54:34.683Z,28.01
2022-10-17T18:57:04.698Z,28.14
2022-10-17T18:59:34.940Z,27.96
2022-10-17T19:02:04.762Z,27.70
2022-10-17T19:04:34.591Z,27.42
2022-10-17T19:07:04.348Z,26.84
2022-10-17T19:09:34.167Z,27.56
2022-10-17T19:12:03.988Z,27.23
2022-10-17T19:14:33.736Z,27.26
2022-10-17T19:17:04.163Z,27.51
2022-10-17T19:19:33.960Z,26.75
2022-10-17T19:22:04.654Z,27.90
2022-10-17T19:24:34.308Z,28.29
2022-10-17T19:27:05.809Z,28.44
2022-10-17T19:29:36.401Z,28.38
2022-10-17T19:32:14.229Z,28.09
2022-10-17T19:34:46.949Z,27.78
2022-10-17T19:37:16.769Z,26.06
2022-10-17T19:39:46.421Z,24.59
2022-10-17T19:42:16.113Z,23.60
2022-10-17T19:44:45.820Z,24.29
2022-10-17T19:47:15.460Z,25.34
2022-10-17T19:49:49.729Z,25.35
2022-10-17T19:52:19.917Z,25.93
2022-10-17T19:54:50.481Z,24.35
2022-10-17T19:57:20.629Z,23.73
2022-10-17T19:59:55.974Z,23.42
2022-10-17T20:02:26.578Z,23.36
2022-10-17T20:05:13.859Z,23.15
2022-10-17T20:07:46.310Z,22.88
2022-10-17T20:10:16.197Z,22.68
2022-10-17T20:12:46.022Z,22.48
2022-10-17T20:15:15.700Z,22.44
2022-10-17T20:17:46.144Z,22.31
2022-10-17T20:20:16.125Z,22.20
2022-10-17T20:22:45.957Z,22.07
2022-10-17T20:25:15.638Z,21.88
2022-10-17T20:27:45.399Z,21.79
2022-10-17T20:30:15.407Z,21.59
2022-10-17T20:32:45.068Z,21.62
2022-10-17T20:35:14.802Z,21.45
2022-10-17T20:37:44.464Z,21.30
2022-10-17T20:40:34.133Z,21.20
2022-10-17T20:43:06.229Z,21.14
2022-10-17T20:45:51.549Z,21.00
2022-10-17T20:48:23.348Z,20.98
2022-10-17T20:50:53.559Z,20.87
2022-10-17T20:53:38.732Z,20.72
2022-10-17T20:56:10.869Z,20.69
2022-10-17T20:58:41.339Z,20.49
2022-10-17T21:01:12.199Z,20.40
2022-10-17T21:03:46.378Z,20.29
2022-10-17T21:06:17.997Z,20.24
2022-10-17T21:08:49.543Z,20.11
2022-10-17T21:11:21.721Z,19.99
2022-10-17T21:13:58.212Z,19.99
2022-10-17T21:16:29.470Z,19.88
2022-10-17T21:19:00.287Z,19.91
2022-10-17T21:21:35.204Z,19.79
2022-10-17T21:24:08.908Z,19.75
2022-10-17T21:26:39.710Z,19.77
2022-10-17T21:29:10.766Z,19.74
2022-10-17T21:31:42.874Z,19.61
2022-10-17T21:34:16.018Z,19.50
2022-10-17T21:36:46.508Z,19.51
2022-10-17T21:39:17.081Z,19.57
2022-10-17T21:41:47.165Z,19.49
2022-10-17T21:44:20.748Z,19.36
2022-10-17T21:46:50.954Z,19.31
2022-10-17T21:49:23.121Z,19.27
2022-10-17T21:51:53.995Z,19.23
2022-10-17T21:54:25.099Z,19.19
2022-10-17T21:56:55.285Z,19.18
2022-10-17T21:59:24.938Z,19.13
2022-10-17T22:01:54.758Z,19.05
2022-10-17T22:04:25.386Z,19.13
2022-10-17T22:06:55.044Z,19.09
2022-10-17T22:09:27.207Z,19.10
2022-10-17T22:11:58.330Z,18.98
2022-10-17T22:14:28.962Z,18.92
2022-10-17T22:16:59.004Z,18.87
2022-10-17T22:19:29.178Z,18.91
2022-10-17T22:21:59.182Z,18.88
2022-10-17T22:24:28.905Z,18.92
2022-10-17T22:26:58.660Z,18.92
2022-10-17T22:29:28.457Z,18.79
2022-10-17T22:31:58.115Z,18.76
2022-10-17T22:34:27.909Z,18.76
2022-10-17T22:36:57.683Z,18.72
2022-10-17T22:39:27.337Z,18.65
2022-10-17T22:41:57.046Z,18.67
2022-10-17T22:44:26.765Z,18.60
2022-10-17T22:46:56.765Z,18.60
2022-10-17T22:49:26.509Z,18.61
2022-10-17T22:51:56.166Z,18.55
2022-10-17T22:54:26.058Z,18.51
2022-10-17T22:56:55.747Z,18.44
2022-10-17T22:59:25.580Z,18.44
2022-10-17T23:01:55.309Z,18.48
2022-10-17T23:04:25.147Z,18.44
2022-10-17T23:06:54.825Z,18.40
2022-10-17T23:09:24.640Z,18.51
2022-10-17T23:11:54.378Z,18.47
2022-10-17T23:14:24.035Z,18.40
2022-10-17T23:16:53.775Z,18.41
2022-10-17T23:19:23.547Z,18.37
2022-10-17T23:21:53.281Z,18.36
2022-10-17T23:24:22.982Z,18.34
2022-10-17T23:26:52.698Z,18.33
2022-10-17T23:29:22.981Z,18.33
2022-10-17T23:31:56.818Z,18.37
2022-10-17T23:34:26.734Z,18.38
2022-10-17T23:36:56.567Z,18.31
2022-10-17T23:39:26.379Z,18.24
2022-10-17T23:41:56.109Z,18.23
2022-10-17T23:44:28.277Z,18.27
2022-10-17T23:46:58.313Z,18.26
2022-10-17T23:49:29.113Z,18.23
2022-10-17T23:51:59.240Z,18.21
2022-10-17T23:54:29.056Z,18.21
2022-10-17T23:56:59.143Z,18.18
2022-10-17T23:59:28.897Z,18.21
